Explorer Of The Seas — C6SE4 — position and weather

sailwx.info

Track history (hours):
 
Tides and Currents Weather Stations Pressure Air Temp Water Temp Dewpoint Dewpoint Depression Visibility Wind Speed Wind Dir Waves Ship Positions

Explorer Of The Seas

Operator: Royal Caribbean Cruises Ltd

Last reported at 2019-Mar-22 09:00 UTC. Time now 2019-Mar-22 12:43 UTC.
Position S 18°36' E 178°00'.

Length 311 m; draft 9.1 m.

Type: Passenger vessel. MMSI: 311316000.

Wind from 100 at 20 knots

Barometer 1013.9 mb
Air temperature 23.0 ° C
Visibility: greater than 27.0 NM
Water temperature 25.0 ° C

Date/timePositionNaut miles runAvg speedWind from/ knotsBaromVisibWave heightAir tempDewpointWater temp
2019-Mar-22 09:00S 18°36' E 178°00'35 1.9 100 / 201013.927.0 23.0 25.0
2019-Mar-21 15:00S 18°42' E 177°24'12621.0 090 / 181011.310.8 26.0 29.0
2019-Mar-21 09:00S 19°00' E 175°12'42617.8 080 / 151011.027.0 25.0 26.0
2019-Mar-20 09:00S 20°24' E 167°48'132 7.7 120 / 251012.227.0 25.0 25.0
2019-Mar-19 15:46S 22°24' E 166°47'519.6
2019-Mar-19 15:31S 22°23' E 166°42'1021.0
2019-Mar-19 15:01S 22°21' E 166°31'918.5
2019-Mar-19 14:31S 22°16' E 166°22'3 6.5
2019-Mar-19 14:00S 22°16' E 166°26'0 0.4
2019-Mar-19 13:31S 22°16' E 166°26'510.5
2019-Mar-19 13:00S 22°17' E 166°20'816.6
2019-Mar-19 12:30S 22°23' E 166°14'816.8
2019-Mar-19 12:00S 22°30' E 166°09'29319.5
2019-Mar-18 21:00S 26°18' E 162°48'11719.5 030 / 171013.2 25.0 25.3
2019-Mar-18 15:00S 27°24' E 161°00'12721.2 020 / 201012.910.8 22.0 26.0
2019-Mar-18 09:00S 28°42' E 159°06'5919.8 020 / 121013.227.0 21.0 24.0
2019-Mar-18 06:00S 29°18' E 158°12'28619.1 360 / 71011.8 23.0 24.7
2019-Mar-17 15:00S 32°12' E 153°48'5819.8 350 / 201012.710.8 20.0 26.0
2019-Mar-17 12:05S 32°49' E 152°56'219.8
2019-Mar-17 11:59S 32°50' E 152°54'1020.2
2019-Mar-17 11:30S 32°56' E 152°45'1020.3
2019-Mar-17 11:00S 33°03' E 152°36'1020.5
2019-Mar-17 10:30S 33°09' E 152°26'1020.1
2019-Mar-17 10:00S 33°15' E 152°16'2719.3
2019-Mar-17 08:35S 33°32' E 151°50'218.2
2019-Mar-17 08:30S 33°33' E 151°49'918.8
2019-Mar-17 08:00S 33°38' E 151°40'1019.2
2019-Mar-17 07:30S 33°44' E 151°31'1019.1
2019-Mar-17 07:00S 33°50' E 151°21'510.7
2019-Mar-17 06:30S 33°51' E 151°15'2 4.1
2019-Mar-17 05:59S 33°52' E 151°13'0 0.0
2019-Mar-17 05:29S 33°52' E 151°13'0 0.0
2019-Mar-17 04:59S 33°52' E 151°13'0 0.0
2019-Mar-17 04:29S 33°52' E 151°13'0 0.0
2019-Mar-17 03:59S 33°52' E 151°13'0 0.0
2019-Mar-17 03:29S 33°52' E 151°13'0 0.0
2019-Mar-17 02:59S 33°52' E 151°13'0 0.0
2019-Mar-17 02:23S 33°52' E 151°13'0 0.0
2019-Mar-17 01:59S 33°52' E 151°13'0 0.0
2019-Mar-17 01:26S 33°52' E 151°13'0 0.0
2019-Mar-17 00:56S 33°52' E 151°13'0 0.0
2019-Mar-17 00:29S 33°52' E 151°13'0 0.0
2019-Mar-16 23:59S 33°52' E 151°13'0 0.0
2019-Mar-16 23:26S 33°52' E 151°13'0 0.0
2019-Mar-16 22:56S 33°52' E 151°13'0 0.0
2019-Mar-16 22:29S 33°52' E 151°13'0 0.0
2019-Mar-16 21:59S 33°52' E 151°13'0 0.0
2019-Mar-16 21:29S 33°52' E 151°13'0 0.0
2019-Mar-16 20:59S 33°52' E 151°13'0 0.0
2019-Mar-16 20:26S 33°52' E 151°13'0 0.0
2019-Mar-16 19:59S 33°52' E 151°13'0 0.0
2019-Mar-16 19:29S 33°52' E 151°13'1 2.4
2019-Mar-16 19:00S 33°51' E 151°14'5 9.8
2019-Mar-16 18:30S 33°50' E 151°20'714.2
2019-Mar-16 18:01S 33°47' E 151°27'918.6
2019-Mar-16 17:30S 33°41' E 151°36'1019.1
2019-Mar-16 17:01S 33°35' E 151°45'4421.7
2019-Mar-16 15:00S 33°06' E 152°24'17919.8 140 / 261014.210.8 20.0 24.0
2019-Mar-16 06:00S 31°18' E 155°12'30720.5 070 / 151013.3 22.8 24.3
2019-Mar-15 15:00S 28°12' E 159°54'12020.0 100 / 101013.910.8 22.0 26.0
2019-Mar-15 09:00S 27°00' E 161°42'25421.2 140 / 201013.327.0 22.0 24.0
2019-Mar-14 21:00S 24°30' E 165°30'12220.3 150 / 81011.3 24.8 25.6
2019-Mar-14 15:00S 23°12' E 167°12'5417.8 080 / 151009.610.8 24.0 25.0
2019-Mar-14 12:00S 22°30' E 167°48'5518.5 070 / 251010.227.0 22.0 25.0
2019-Mar-14 09:00S 21°42' E 167°18'16 0.9 060 / 81009.727.0 22.0 24.0
2019-Mar-13 15:00S 21°30' E 167°06'25 8.2 200 / 201009.510.8 23.0 26.0
2019-Mar-13 12:00S 21°54' E 167°12'3811.2 200 / 251011.010.8 22.0 24.0
2019-Mar-13 08:38S 22°24' E 166°47'316.9
2019-Mar-13 08:26S 22°23' E 166°43'717.2
2019-Mar-13 08:00S 22°22' E 166°36'816.9
2019-Mar-13 07:30S 22°20' E 166°27'611.9
2019-Mar-13 07:00S 22°15' E 166°23'3 5.3
2019-Mar-13 06:29S 22°16' E 166°26'0 0.0
2019-Mar-13 05:59S 22°16' E 166°26'0 0.0
2019-Mar-13 05:28S 22°16' E 166°26'0 0.0
2019-Mar-13 04:59S 22°16' E 166°26'0 0.0
2019-Mar-13 04:28S 22°16' E 166°26'0 0.0
2019-Mar-13 03:59S 22°16' E 166°26'0 0.0
2019-Mar-13 03:26S 22°16' E 166°26'0 0.0
2019-Mar-13 02:53S 22°16' E 166°26'0 0.0
2019-Mar-13 01:59S 22°16' E 166°26'0 0.0
2019-Mar-13 01:28S 22°16' E 166°26'0 0.0
2019-Mar-13 00:58S 22°16' E 166°26'0 0.0
2019-Mar-13 00:29S 22°16' E 166°26'0 0.0
2019-Mar-12 23:59S 22°16' E 166°26'0 0.0
2019-Mar-12 23:23S 22°16' E 166°26'0 0.0
2019-Mar-12 22:59S 22°16' E 166°26'0 0.0
2019-Mar-12 22:29S 22°16' E 166°26'0 0.0
2019-Mar-12 21:59S 22°16' E 166°26'0 0.0
2019-Mar-12 21:28S 22°16' E 166°26'0 0.3
2019-Mar-12 21:01S 22°16' E 166°26'510.5
2019-Mar-12 20:30S 22°16' E 166°20'816.5
2019-Mar-12 20:00S 22°22' E 166°14'916.4
2019-Mar-12 19:27S 22°29' E 166°07'7917.7
2019-Mar-12 15:00S 23°18' E 165°00'5718.9 090 / 201012.610.8 22.0 26.0
2019-Mar-12 12:00S 23°54' E 164°12'5317.5 080 / 171013.727.0 22.0 24.0
2019-Mar-12 09:00S 24°30' E 163°30'   070 / 191013.227.0 22.0 24.0
Track history (hours):
 
Tides and Currents Weather Stations Pressure Air Temp Water Temp Dewpoint Dewpoint Depression Visibility Wind Speed Wind Dir Waves Ship Positions

Explorer Of The Seas

Operator: Royal Caribbean Cruises Ltd

Last reported at 2019-Mar-22 09:00 UTC. Time now 2019-Mar-22 12:43 UTC.
Position S 18°36' E 178°00'.

Length 311 m; draft 9.1 m.

Type: Passenger vessel. MMSI: 311316000.

Wind from 100 at 20 knots

Barometer 1013.9 mb
Air temperature 23.0 ° C
Visibility: greater than 27.0 NM
Water temperature 25.0 ° C

Date/timePositionNaut miles runAvg speedWind from/ knotsBaromVisibWave heightAir tempDewpointWater temp
2019-Mar-22 09:00S 18°36' E 178°00'35 1.9 100 / 201013.927.0 23.0 25.0
2019-Mar-21 15:00S 18°42' E 177°24'12621.0 090 / 181011.310.8 26.0 29.0
2019-Mar-21 09:00S 19°00' E 175°12'42617.8 080 / 151011.027.0 25.0 26.0
2019-Mar-20 09:00S 20°24' E 167°48'132 7.7 120 / 251012.227.0 25.0 25.0
2019-Mar-19 15:46S 22°24' E 166°47'519.6
2019-Mar-19 15:31S 22°23' E 166°42'1021.0
2019-Mar-19 15:01S 22°21' E 166°31'918.5
2019-Mar-19 14:31S 22°16' E 166°22'3 6.5
2019-Mar-19 14:00S 22°16' E 166°26'0 0.4
2019-Mar-19 13:31S 22°16' E 166°26'510.5
2019-Mar-19 13:00S 22°17' E 166°20'816.6
2019-Mar-19 12:30S 22°23' E 166°14'816.8
2019-Mar-19 12:00S 22°30' E 166°09'29319.5
2019-Mar-18 21:00S 26°18' E 162°48'11719.5 030 / 171013.2 25.0 25.3
2019-Mar-18 15:00S 27°24' E 161°00'12721.2 020 / 201012.910.8 22.0 26.0
2019-Mar-18 09:00S 28°42' E 159°06'5919.8 020 / 121013.227.0 21.0 24.0
2019-Mar-18 06:00S 29°18' E 158°12'28619.1 360 / 71011.8 23.0 24.7
2019-Mar-17 15:00S 32°12' E 153°48'5819.8 350 / 201012.710.8 20.0 26.0
2019-Mar-17 12:05S 32°49' E 152°56'219.8
2019-Mar-17 11:59S 32°50' E 152°54'1020.2
2019-Mar-17 11:30S 32°56' E 152°45'1020.3
2019-Mar-17 11:00S 33°03' E 152°36'1020.5
2019-Mar-17 10:30S 33°09' E 152°26'1020.1
2019-Mar-17 10:00S 33°15' E 152°16'2719.3
2019-Mar-17 08:35S 33°32' E 151°50'218.2
2019-Mar-17 08:30S 33°33' E 151°49'918.8
2019-Mar-17 08:00S 33°38' E 151°40'1019.2
2019-Mar-17 07:30S 33°44' E 151°31'1019.1
2019-Mar-17 07:00S 33°50' E 151°21'510.7
2019-Mar-17 06:30S 33°51' E 151°15'2 4.1
2019-Mar-17 05:59S 33°52' E 151°13'0 0.0
2019-Mar-17 05:29S 33°52' E 151°13'0 0.0
2019-Mar-17 04:59S 33°52' E 151°13'0 0.0
2019-Mar-17 04:29S 33°52' E 151°13'0 0.0
2019-Mar-17 03:59S 33°52' E 151°13'0 0.0
2019-Mar-17 03:29S 33°52' E 151°13'0 0.0
2019-Mar-17 02:59S 33°52' E 151°13'0 0.0
2019-Mar-17 02:23S 33°52' E 151°13'0 0.0
2019-Mar-17 01:59S 33°52' E 151°13'0 0.0
2019-Mar-17 01:26S 33°52' E 151°13'0 0.0
2019-Mar-17 00:56S 33°52' E 151°13'0 0.0
2019-Mar-17 00:29S 33°52' E 151°13'0 0.0
2019-Mar-16 23:59S 33°52' E 151°13'0 0.0
2019-Mar-16 23:26S 33°52' E 151°13'0 0.0
2019-Mar-16 22:56S 33°52' E 151°13'0 0.0
2019-Mar-16 22:29S 33°52' E 151°13'0 0.0
2019-Mar-16 21:59S 33°52' E 151°13'0 0.0
2019-Mar-16 21:29S 33°52' E 151°13'0 0.0
2019-Mar-16 20:59S 33°52' E 151°13'0 0.0
2019-Mar-16 20:26S 33°52' E 151°13'0 0.0
2019-Mar-16 19:59S 33°52' E 151°13'0 0.0
2019-Mar-16 19:29S 33°52' E 151°13'1 2.4
2019-Mar-16 19:00S 33°51' E 151°14'5 9.8
2019-Mar-16 18:30S 33°50' E 151°20'714.2
2019-Mar-16 18:01S 33°47' E 151°27'918.6
2019-Mar-16 17:30S 33°41' E 151°36'1019.1
2019-Mar-16 17:01S 33°35' E 151°45'4421.7
2019-Mar-16 15:00S 33°06' E 152°24'17919.8 140 / 261014.210.8 20.0 24.0
2019-Mar-16 06:00S 31°18' E 155°12'30720.5 070 / 151013.3 22.8 24.3
2019-Mar-15 15:00S 28°12' E 159°54'12020.0 100 / 101013.910.8 22.0 26.0
2019-Mar-15 09:00S 27°00' E 161°42'25421.2 140 / 201013.327.0 22.0 24.0
2019-Mar-14 21:00S 24°30' E 165°30'12220.3 150 / 81011.3 24.8 25.6
2019-Mar-14 15:00S 23°12' E 167°12'5417.8 080 / 151009.610.8 24.0 25.0
2019-Mar-14 12:00S 22°30' E 167°48'5518.5 070 / 251010.227.0 22.0 25.0
2019-Mar-14 09:00S 21°42' E 167°18'16 0.9 060 / 81009.727.0 22.0 24.0
2019-Mar-13 15:00S 21°30' E 167°06'25 8.2 200 / 201009.510.8 23.0 26.0
2019-Mar-13 12:00S 21°54' E 167°12'3811.2 200 / 251011.010.8 22.0 24.0
2019-Mar-13 08:38S 22°24' E 166°47'316.9
2019-Mar-13 08:26S 22°23' E 166°43'717.2
2019-Mar-13 08:00S 22°22' E 166°36'816.9
2019-Mar-13 07:30S 22°20' E 166°27'611.9
2019-Mar-13 07:00S 22°15' E 166°23'3 5.3
2019-Mar-13 06:29S 22°16' E 166°26'0 0.0
2019-Mar-13 05:59S 22°16' E 166°26'0 0.0
2019-Mar-13 05:28S 22°16' E 166°26'0 0.0
2019-Mar-13 04:59S 22°16' E 166°26'0 0.0
2019-Mar-13 04:28S 22°16' E 166°26'0 0.0
2019-Mar-13 03:59S 22°16' E 166°26'0 0.0
2019-Mar-13 03:26S 22°16' E 166°26'0 0.0
2019-Mar-13 02:53S 22°16' E 166°26'0 0.0
2019-Mar-13 01:59S 22°16' E 166°26'0 0.0
2019-Mar-13 01:28S 22°16' E 166°26'0 0.0
2019-Mar-13 00:58S 22°16' E 166°26'0 0.0
2019-Mar-13 00:29S 22°16' E 166°26'0 0.0
2019-Mar-12 23:59S 22°16' E 166°26'0 0.0
2019-Mar-12 23:23S 22°16' E 166°26'0 0.0
2019-Mar-12 22:59S 22°16' E 166°26'0 0.0
2019-Mar-12 22:29S 22°16' E 166°26'0 0.0
2019-Mar-12 21:59S 22°16' E 166°26'0 0.0
2019-Mar-12 21:28S 22°16' E 166°26'0 0.3
2019-Mar-12 21:01S 22°16' E 166°26'510.5
2019-Mar-12 20:30S 22°16' E 166°20'816.5
2019-Mar-12 20:00S 22°22' E 166°14'916.4
2019-Mar-12 19:27S 22°29' E 166°07'7917.7
2019-Mar-12 15:00S 23°18' E 165°00'5718.9 090 / 201012.610.8 22.0 26.0
2019-Mar-12 12:00S 23°54' E 164°12'5317.5 080 / 171013.727.0 22.0 24.0
2019-Mar-12 09:00S 24°30' E 163°30'   070 / 191013.227.0 22.0 24.0

Dump ship's entire track history